Crawford, Mississippi
Current Conditions -  °F | °C
As of 9:55 PM on Sunday 23 Nov 2014 (Local Time) from KGTR Reporting Station
Clear Clear  
Wind Chill: 61°   Ceiling: Unl
Heat Index: 61°   Visibility: 10mi
Dew Point: 55°   Wind: 10mph
Humidity: 82%   Direction: 180°S
Pressure: 29.59"   Gusts: NA
Location:  33.3°N, 88.61°W
Report Text: KGTR 240355Z 18009KT 10SM CLR 16/13 A2959 RMK AO1
Loading
Personal Weather Stations






























Interactive Weather Map New forecast layout! Learn more

10-Day Weather Forecast

Advertisements
Track Severe Weather on mobile